Time;durP1;ratioP1;P1;durP2;ratioP2;P2;SDS_P1;SDS_P2;PMS_P1;PMS_P2;Temp;Humidity;BMP_temperature;BMP_pressure;BME280_temperature;BME280_humidity;BME280_pressure;Samples;Min_cycle;Max_cycle;Signal;HPM_P1;HPM_P2
2021/10/25 00:00:33;;;;;;;9.08;4.87;;;;;;;3.17;57.54;100946.28;1748959;80;21168;-36
2021/10/25 00:03:00;;;;;;;8.13;4.92;;;;;;;3.18;57.52;100946.55;1773417;80;21099;-36
2021/10/25 00:05:27;;;;;;;8.15;4.70;;;;;;;3.13;57.46;100948.43;1762593;80;20960;-36
2021/10/25 00:07:55;;;;;;;7.80;5.47;;;;;;;3.03;57.61;100943.89;1775641;80;21028;-37
2021/10/25 00:10:21;;;;;;;9.58;4.85;;;;;;;2.98;57.78;100945.24;1757819;80;21037;-36
2021/10/25 00:12:50;;;;;;;8.03;5.35;;;;;;;2.98;57.97;100947.92;1766369;80;21350;-36
2021/10/25 00:15:17;;;;;;;10.85;5.03;;;;;;;3.02;57.96;100952.47;1747195;80;21086;-36
2021/10/25 00:17:44;;;;;;;9.48;4.95;;;;;;;3.08;57.93;100957.81;1747179;80;21063;-37
2021/10/25 00:20:13;;;;;;;8.58;5.00;;;;;;;3.08;57.78;100956.48;1746766;82;21522;-36
2021/10/25 00:22:41;;;;;;;10.55;4.70;;;;;;;3.00;57.70;100951.14;1752923;80;20987;-37
2021/10/25 00:25:08;;;;;;;6.97;4.22;;;;;;;2.91;57.84;100954.88;1747660;80;21912;-36
2021/10/25 00:27:35;;;;;;;7.50;5.05;;;;;;;2.79;58.09;100940.98;1705273;84;21517;-36
2021/10/25 00:30:04;;;;;;;7.72;4.60;;;;;;;2.77;58.40;100946.32;1711420;82;21476;-36
2021/10/25 00:32:31;;;;;;;8.85;4.60;;;;;;;2.70;58.61;100942.59;1699444;83;21043;-36
2021/10/25 00:34:59;;;;;;;7.25;4.60;;;;;;;2.66;58.92;100944.20;1774749;80;20957;-36
2021/10/25 00:37:27;;;;;;;8.28;5.15;;;;;;;2.72;58.94;100941.77;1769402;80;21187;-36
2021/10/25 00:39:54;;;;;;;8.90;4.70;;;;;;;2.80;58.76;100946.61;1753639;80;21108;-36
2021/10/25 00:42:21;;;;;;;7.67;4.75;;;;;;;2.89;58.48;100939.63;1746932;80;21040;-36
2021/10/25 00:44:47;;;;;;;11.63;5.03;;;;;;;2.95;58.31;100946.56;1768055;79;21083;-36
2021/10/25 00:47:14;;;;;;;9.00;5.00;;;;;;;2.98;58.19;100944.70;1705416;84;21661;-36
2021/10/25 00:49:41;;;;;;;9.55;5.62;;;;;;;3.01;58.04;100941.48;1708182;83;21151;-36
2021/10/25 00:52:08;;;;;;;8.38;5.12;;;;;;;3.02;58.00;100951.13;1706215;84;20926;-36
2021/10/25 00:54:35;;;;;;;11.20;5.55;;;;;;;3.05;58.01;100947.09;1722806;83;20976;-36
2021/10/25 00:57:04;;;;;;;10.60;4.95;;;;;;;3.06;57.87;100943.34;1718425;82;21047;-36
2021/10/25 00:59:32;;;;;;;7.55;4.60;;;;;;;3.04;57.86;100944.17;1747362;80;21071;-36
2021/10/25 01:02:00;;;;;;;9.55;5.65;;;;;;;3.05;57.86;100943.88;1747471;80;21518;-36
2021/10/25 01:04:27;;;;;;;7.62;4.70;;;;;;;3.05;57.88;100941.20;1761409;80;21551;-36
2021/10/25 01:06:55;;;;;;;7.97;4.78;;;;;;;3.00;57.84;100941.77;1778124;80;21103;-36
2021/10/25 01:09:22;;;;;;;10.15;5.33;;;;;;;2.94;57.99;100947.66;1764464;80;21031;-36
2021/10/25 01:11:50;;;;;;;8.28;4.75;;;;;;;2.92;58.05;100940.95;1748312;80;21087;-36
2021/10/25 01:14:17;;;;;;;10.15;4.92;;;;;;;2.90;58.08;100942.59;1741160;82;21137;-36
2021/10/25 01:16:44;;;;;;;12.75;5.15;;;;;;;2.88;58.15;100950.08;1774631;80;21605;-36
2021/10/25 01:19:11;;;;;;;8.45;4.80;;;;;;;2.89;58.16;100940.16;1766889;80;21776;-36
2021/10/25 01:21:40;;;;;;;8.50;4.62;;;;;;;2.86;58.20;100944.17;1748194;80;21039;-36
2021/10/25 01:24:07;;;;;;;9.55;5.55;;;;;;;2.86;58.19;100950.87;1777195;80;21044;-36
2021/10/25 01:26:33;;;;;;;9.15;4.90;;;;;;;2.88;58.13;100951.41;1756810;80;21107;-36
2021/10/25 01:29:00;;;;;;;10.03;5.40;;;;;;;2.89;58.09;100955.70;1765987;80;21091;-36
2021/10/25 01:31:26;;;;;;;6.25;4.67;;;;;;;2.90;58.05;100959.19;1785801;80;21061;-36
2021/10/25 01:33:53;;;;;;;8.53;4.87;;;;;;;2.90;58.08;100964.55;1772848;80;21498;-36
2021/10/25 01:36:21;;;;;;;8.55;4.95;;;;;;;2.91;58.04;100968.27;1762650;80;21016;-36
2021/10/25 01:38:50;;;;;;;8.95;4.90;;;;;;;2.91;58.03;100966.94;1780033;80;21110;-36
2021/10/25 01:41:17;;;;;;;8.65;5.08;;;;;;;2.91;58.04;100971.48;1748441;81;20976;-36
2021/10/25 01:43:44;;;;;;;9.45;5.30;;;;;;;2.92;58.03;100965.06;1748629;80;21087;-36
2021/10/25 01:46:13;;;;;;;9.25;5.42;;;;;;;2.93;57.95;100979.54;1755596;80;20955;-36
2021/10/25 01:48:39;;;;;;;7.92;5.37;;;;;;;2.86;58.06;100972.83;1767394;80;21012;-36
2021/10/25 01:51:06;;;;;;;9.68;5.65;;;;;;;2.84;58.23;100975.80;1754636;80;21094;-46
2021/10/25 01:53:37;;;;;;;8.28;5.70;;;;;;;2.87;58.17;100978.45;1718319;83;20910;-37
2021/10/25 01:56:06;;;;;;;9.58;5.60;;;;;;;2.86;58.14;100987.56;1680060;82;21036;-36
2021/10/25 01:58:34;;;;;;;8.88;5.75;;;;;;;2.83;58.21;100984.09;1750584;80;21896;-36
2021/10/25 02:01:04;;;;;;;8.58;5.50;;;;;;;2.82;58.24;100990.52;1770780;80;20940;-36
2021/10/25 02:03:33;;;;;;;8.95;5.53;;;;;;;2.80;58.20;100989.99;1774364;80;21146;-36
2021/10/25 02:06:03;;;;;;;8.93;5.05;;;;;;;2.77;58.31;100985.96;1767371;80;20897;-36
2021/10/25 02:08:31;;;;;;;10.20;5.65;;;;;;;2.74;58.43;100989.72;1708288;82;21000;-37
2021/10/25 02:10:59;;;;;;;9.15;5.22;;;;;;;2.74;58.47;100992.39;1708588;82;21020;-36
2021/10/25 02:13:28;;;;;;;11.08;5.28;;;;;;;2.74;58.50;100993.20;1720982;82;21027;-36
2021/10/25 02:15:56;;;;;;;9.68;5.53;;;;;;;2.76;58.49;100992.94;1760238;80;21077;-36
2021/10/25 02:18:23;;;;;;;9.00;5.25;;;;;;;2.77;58.43;101001.22;1758340;80;20940;-36
2021/10/25 02:20:50;;;;;;;8.18;5.33;;;;;;;2.76;58.48;100999.08;1756705;80;21091;-36
2021/10/25 02:23:19;;;;;;;8.80;5.25;;;;;;;2.75;58.51;101001.51;1710387;83;21617;-36
2021/10/25 02:25:48;;;;;;;7.72;4.90;;;;;;;2.74;58.41;100994.54;1696685;83;21434;-36
2021/10/25 02:28:17;;;;;;;8.58;5.28;;;;;;;2.73;58.49;101004.17;1728406;82;21138;-36
2021/10/25 02:30:45;;;;;;;9.23;5.00;;;;;;;2.71;58.54;100997.73;1733049;82;21014;-36
2021/10/25 02:33:12;;;;;;;9.53;5.45;;;;;;;2.71;58.55;101003.65;1722506;82;21061;-36
2021/10/25 02:35:39;;;;;;;9.55;5.28;;;;;;;2.73;58.53;101002.30;1696139;84;21016;-36
2021/10/25 02:38:06;;;;;;;11.35;5.62;;;;;;;2.74;58.45;101003.91;1745209;80;21095;-36
2021/10/25 02:40:34;;;;;;;8.43;5.00;;;;;;;2.76;58.41;101004.99;1749023;80;21132;-36
2021/10/25 02:43:01;;;;;;;10.00;5.30;;;;;;;2.75;58.41;101007.40;1753104;80;21083;-38
2021/10/25 02:45:30;;;;;;;9.93;5.53;;;;;;;2.73;58.37;101009.52;1773072;80;21917;-36
2021/10/25 02:47:57;;;;;;;9.10;6.07;;;;;;;2.71;58.40;101007.11;1777717;80;21004;-36
2021/10/25 02:50:25;;;;;;;10.18;5.62;;;;;;;2.62;58.52;101006.03;1762367;80;21322;-36
2021/10/25 02:52:51;;;;;;;11.35;6.42;;;;;;;2.50;58.69;101017.02;1777594;80;21136;-36
2021/10/25 02:55:18;;;;;;;9.03;5.87;;;;;;;2.45;58.82;101010.84;1756213;80;20980;-36
2021/10/25 02:57:45;;;;;;;9.75;5.25;;;;;;;2.42;59.00;101008.70;1747540;80;21563;-36
2021/10/25 03:00:14;;;;;;;9.55;5.90;;;;;;;2.42;58.96;101005.47;1766310;80;21011;-36
2021/10/25 03:02:42;;;;;;;11.05;5.72;;;;;;;2.43;59.00;101018.31;1776134;80;21047;-36
2021/10/25 03:05:09;;;;;;;9.08;5.12;;;;;;;2.46;58.98;101013.80;1739522;79;21746;-36
2021/10/25 03:07:36;;;;;;;8.15;4.97;;;;;;;2.47;58.84;101018.08;1763128;80;21044;-37
2021/10/25 03:10:05;;;;;;;8.78;5.15;;;;;;;2.47;58.84;101019.42;1747461;80;21021;-36
2021/10/25 03:12:32;;;;;;;6.95;5.10;;;;;;;2.48;58.83;101019.67;1768142;80;22122;-36
2021/10/25 03:15:01;;;;;;;8.08;5.17;;;;;;;2.48;58.89;101023.69;1752248;80;21044;-36
2021/10/25 03:17:28;;;;;;;9.70;5.80;;;;;;;2.47;58.87;101026.11;1747115;82;21104;-36
2021/10/25 03:20:05;;;;;;;9.45;5.67;;;;;;;2.46;58.84;101025.30;1743951;80;21099;-37
2021/10/25 03:22:31;;;;;;;11.57;5.60;;;;;;;2.42;58.86;101027.44;1706836;84;21512;-36
2021/10/25 03:24:59;;;;;;;11.65;6.15;;;;;;;2.41;58.76;101033.86;1719088;82;21011;-36
2021/10/25 03:27:27;;;;;;;10.63;6.33;;;;;;;2.39;58.77;101028.75;1742469;82;20986;-36
2021/10/25 03:29:53;;;;;;;10.15;5.55;;;;;;;2.41;58.73;101021.81;1716328;82;21830;-37
2021/10/25 03:32:21;;;;;;;8.63;5.30;;;;;;;2.39;58.80;101018.58;1738906;82;21594;-36
2021/10/25 03:34:49;;;;;;;9.85;5.42;;;;;;;2.31;58.92;101011.89;1725409;81;21037;-36
2021/10/25 03:37:18;;;;;;;9.43;5.30;;;;;;;2.35;58.96;101020.19;1712569;83;21128;-36
2021/10/25 03:39:48;;;;;;;9.20;5.03;;;;;;;2.36;58.91;101021.80;1739338;82;21053;-36
2021/10/25 03:42:24;;;;;;;8.95;5.35;;;;;;;2.38;58.81;101019.11;1742171;82;21965;-36
2021/10/25 03:44:47;;;;;;;8.58;4.95;;;;;;;2.39;58.69;101025.27;1722693;81;21045;-36
2021/10/25 03:47:22;;;;;;;10.13;5.70;;;;;;;2.36;58.77;101033.84;1706349;82;21618;-36
2021/10/25 03:49:52;;;;;;;7.62;4.75;;;;;;;2.37;58.68;101035.45;1719215;82;21041;-35
2021/10/25 03:52:37;;;;;;;9.03;5.20;;;;;;;2.36;58.73;101030.63;1711046;82;21523;-35
2021/10/25 04:00:35;;;;;;;8.78;5.60;;;;;;;2.33;58.74;101028.47;1728848;82;20946;-35
2021/10/25 04:25:21;;;;;;;10.08;6.30;;;;;;;2.27;58.71;101032.75;1721876;82;20982;-36
2021/10/25 04:27:59;;;;;;;9.30;6.65;;;;;;;2.14;58.96;101045.54;1739896;82;20926;-36
2021/10/25 04:30:23;;;;;;;12.33;7.60;;;;;;;2.12;59.02;101046.35;1738190;81;20999;-36
2021/10/25 04:32:50;;;;;;;12.40;7.25;;;;;;;2.13;59.01;101038.57;1735547;82;21108;-36
2021/10/25 04:35:25;;;;;;;13.30;7.80;;;;;;;2.15;58.96;101035.64;1710275;82;21263;-36
2021/10/25 04:37:59;;;;;;;10.72;7.10;;;;;;;2.15;58.92;101033.78;1713368;82;21529;-36
2021/10/25 04:40:27;;;;;;;14.75;8.15;;;;;;;2.13;58.94;101038.57;1734238;82;21069;-36
2021/10/25 04:42:55;;;;;;;13.35;7.95;;;;;;;2.14;58.87;101037.52;1734960;82;21014;-38
2021/10/25 04:45:22;;;;;;;16.35;7.58;;;;;;;2.14;58.82;101042.86;1720998;81;21041;-36
2021/10/25 04:47:52;;;;;;;12.78;7.33;;;;;;;2.15;58.82;101048.49;1738405;82;21150;-36
2021/10/25 04:50:36;;;;;;;11.22;7.47;;;;;;;2.14;58.87;101044.20;1710279;82;21046;-36
2021/10/25 04:53:05;;;;;;;12.63;7.03;;;;;;;2.12;58.85;101042.34;1735652;82;21543;-36
2021/10/25 04:55:31;;;;;;;10.40;6.80;;;;;;;2.11;58.78;101050.62;1712472;82;21059;-36
2021/10/25 04:57:58;;;;;;;10.32;6.95;;;;;;;2.09;58.81;101058.89;1712542;83;21608;-36
2021/10/25 05:00:25;;;;;;;12.15;7.25;;;;;;;2.10;58.72;101064.52;1726696;82;21148;-36
2021/10/25 05:02:52;;;;;;;13.62;8.30;;;;;;;2.09;58.75;101074.95;1729083;82;21033;-36
2021/10/25 05:05:18;;;;;;;12.90;8.88;;;;;;;2.11;58.69;101078.17;1742010;82;21003;-36
2021/10/25 05:07:45;;;;;;;13.50;8.48;;;;;;;2.13;58.70;101076.03;1715222;82;21062;-36
2021/10/25 05:10:13;;;;;;;14.78;7.80;;;;;;;2.14;58.79;101076.30;1718947;82;21028;-36
2021/10/25 05:12:40;;;;;;;10.63;7.70;;;;;;;2.17;58.75;101089.18;1723133;82;21252;-36
2021/10/25 05:15:07;;;;;;;10.58;7.10;;;;;;;2.18;58.83;101092.63;1714619;82;21041;-37
2021/10/25 05:17:35;;;;;;;11.97;7.40;;;;;;;2.18;58.85;101089.42;1717317;82;21002;-37
2021/10/25 05:20:05;;;;;;;11.00;7.00;;;;;;;2.19;58.92;101097.73;1714706;82;21065;-36
2021/10/25 05:22:34;;;;;;;12.93;8.08;;;;;;;2.17;58.94;101099.08;1712202;83;21002;-37
2021/10/25 05:25:00;;;;;;;12.03;7.92;;;;;;;2.21;59.02;101096.67;1712536;83;21126;-36
2021/10/25 05:27:28;;;;;;;15.43;8.60;;;;;;;2.22;59.06;101095.08;1698547;83;20948;-36
2021/10/25 05:29:54;;;;;;;14.47;8.55;;;;;;;2.24;59.14;101106.84;1765551;80;21541;-36
2021/10/25 05:32:21;;;;;;;13.22;7.90;;;;;;;2.29;59.18;101108.20;1768029;80;21051;-36
2021/10/25 05:34:48;;;;;;;11.70;7.37;;;;;;;2.32;59.26;101113.05;1755498;80;21067;-36
2021/10/25 05:37:15;;;;;;;10.90;7.50;;;;;;;2.36;59.27;101107.44;1765950;79;21126;-36
2021/10/25 05:39:42;;;;;;;12.33;8.15;;;;;;;2.38;59.26;101110.64;1713873;83;20962;-36
2021/10/25 05:42:10;;;;;;;14.28;7.25;;;;;;;2.40;59.26;101113.34;1756817;80;21067;-36
2021/10/25 05:44:38;;;;;;;15.03;7.40;;;;;;;2.43;59.33;101117.35;1770291;80;21507;-36
2021/10/25 05:47:05;;;;;;;11.90;7.65;;;;;;;2.42;59.41;101116.55;1780645;79;21546;-36
2021/10/25 05:49:32;;;;;;;16.45;7.85;;;;;;;2.46;59.36;101116.84;1762848;80;21102;-36
2021/10/25 05:51:59;;;;;;;14.83;8.13;;;;;;;2.48;59.45;101118.18;1769488;80;21003;-36
2021/10/25 05:54:26;;;;;;;16.48;8.30;;;;;;;2.50;59.54;101120.61;1780687;79;21080;-36
2021/10/25 05:56:54;;;;;;;12.45;8.33;;;;;;;2.56;59.51;101127.59;1780670;80;21011;-36
2021/10/25 05:59:25;;;;;;;11.90;7.25;;;;;;;2.51;59.53;101121.69;1752020;79;21541;-36
2021/10/25 06:01:58;;;;;;;12.75;7.83;;;;;;;2.59;59.58;101133.75;1762746;80;21104;-36
2021/10/25 06:04:26;;;;;;;13.55;7.62;;;;;;;2.65;59.64;101137.25;1754675;80;21020;-36
2021/10/25 06:06:55;;;;;;;15.28;8.10;;;;;;;2.36;59.64;101090.05;1749857;79;20949;-36
2021/10/25 06:09:23;;;;;;;13.75;8.78;;;;;;;2.71;59.66;101143.67;1730201;80;21633;-36
2021/10/25 06:11:50;;;;;;;12.63;7.97;;;;;;;2.77;59.62;101142.63;1753933;80;21029;-36
2021/10/25 06:14:26;;;;;;;12.55;7.67;;;;;;;2.79;59.54;101150.41;1753835;80;21100;-36
2021/10/25 06:16:53;;;;;;;12.23;7.08;;;;;;;2.74;59.50;101152.55;1761839;80;21038;-36
2021/10/25 06:19:20;;;;;;;11.33;7.70;;;;;;;2.67;59.76;101153.31;1756162;80;20976;-36
2021/10/25 06:21:46;;;;;;;14.90;8.23;;;;;;;2.65;59.95;101158.14;1763171;80;21053;-36
2021/10/25 06:24:14;;;;;;;19.33;9.30;;;;;;;2.61;60.28;101157.84;1750713;80;21066;-36
2021/10/25 06:26:45;;;;;;;15.55;8.05;;;;;;;2.68;60.24;101155.45;1761442;79;21143;-36
2021/10/25 06:29:14;;;;;;;13.60;7.90;;;;;;;2.74;60.38;101161.11;1777842;79;20983;-36
2021/10/25 06:31:43;;;;;;;11.68;7.00;;;;;;;2.77;60.41;101158.70;1786191;79;21783;-36
2021/10/25 06:34:24;;;;;;;11.30;7.37;;;;;;;2.87;60.30;101164.62;1783875;79;20983;-36
2021/10/25 06:36:58;;;;;;;10.93;6.85;;;;;;;2.94;60.11;101163.31;1775257;79;21099;-36
2021/10/25 06:41:48;;;;;;;10.75;6.90;;;;;;;3.15;59.95;101170.83;1831772;78;22566;-36
2021/10/25 06:44:17;;;;;;;13.38;7.40;;;;;;;3.11;59.95;101167.61;1790513;79;20958;-36
2021/10/25 06:46:44;;;;;;;14.03;7.47;;;;;;;3.20;59.82;101170.84;1784208;80;21142;-36
2021/10/25 06:49:11;;;;;;;16.75;7.25;;;;;;;3.28;59.67;101173.02;1785472;79;20941;-36
2021/10/25 06:51:40;;;;;;;11.95;7.50;;;;;;;3.37;59.67;101171.94;1779659;79;21000;-37
2021/10/25 06:54:07;;;;;;;11.05;7.00;;;;;;;3.41;59.69;101174.35;1785932;78;20945;-36
2021/10/25 06:56:35;;;;;;;11.50;7.42;;;;;;;3.46;59.68;101174.36;1823050;78;20917;-36
2021/10/25 06:59:02;;;;;;;11.53;7.33;;;;;;;3.56;59.50;101178.92;1749661;81;21822;-37
2021/10/25 07:01:29;;;;;;;12.47;7.15;;;;;;;3.65;59.31;101178.64;1747000;80;21531;-36
2021/10/25 07:03:56;;;;;;;9.98;6.00;;;;;;;3.73;59.20;101183.45;1748045;80;21012;-37
2021/10/25 07:06:29;;;;;;;11.53;7.22;;;;;;;3.80;59.02;101182.13;1764535;80;21037;-36
2021/10/25 07:08:56;;;;;;;13.58;6.40;;;;;;;3.89;58.75;101178.36;1734163;82;21069;-36
2021/10/25 07:11:23;;;;;;;13.08;7.35;;;;;;;3.94;58.68;101175.13;1750194;81;21214;-36
2021/10/25 07:13:51;;;;;;;10.55;6.58;;;;;;;4.03;58.47;101181.28;1768181;80;21076;-37
2021/10/25 07:16:24;;;;;;;8.83;5.53;;;;;;;4.13;58.42;101178.58;1762485;81;20970;-37
2021/10/25 07:19:03;;;;;;;12.90;6.53;;;;;;;4.24;58.16;101178.83;1744359;80;20943;-36
2021/10/25 07:21:36;;;;;;;251.12;21.68;;;;;;;4.35;58.09;101177.73;1732989;82;21079;-37
2021/10/25 07:26:14;;;;;;;13.35;6.50;;;;;;;4.49;58.27;101186.00;1759552;80;21124;-37
2021/10/25 08:02:47;;;;;;;8.28;4.10;;;;;;;7.14;50.58;101174.19;1737159;81;21037;-35
2021/10/25 08:10:13;;;;;;;5.10;2.98;;;;;;;7.71;48.54;101166.80;1726974;82;20966;-36
2021/10/25 08:12:44;;;;;;;4.72;3.12;;;;;;;7.91;47.90;101173.20;1745619;82;21808;-36
2021/10/25 08:15:08;;;;;;;4.30;2.85;;;;;;;8.11;46.97;101167.98;1744531;82;21029;-35
2021/10/25 08:17:43;;;;;;;2.83;1.90;;;;;;;8.24;46.52;101172.05;1751646;81;21137;-35
2021/10/25 08:20:08;;;;;;;4.00;2.05;;;;;;;8.39;45.58;101165.57;1807460;78;20961;-36
2021/10/25 08:22:37;;;;;;;3.87;2.35;;;;;;;8.50;44.84;101167.53;1790359;79;21068;-35
2021/10/25 08:25:05;;;;;;;18.45;2.60;;;;;;;8.61;44.71;101164.88;1772506;81;21015;-36
2021/10/25 08:27:35;;;;;;;25.25;3.25;;;;;;;8.70;44.96;101171.17;1790375;79;21583;-36
2021/10/25 08:30:05;;;;;;;6.42;2.70;;;;;;;8.85;44.69;101163.28;1784150;78;21098;-36
2021/10/25 08:40:38;;;;;;;4.22;2.40;;;;;;;9.36;42.65;101156.15;1829856;78;21002;-38
2021/10/25 08:43:06;;;;;;;2.65;1.87;;;;;;;9.41;41.82;101154.67;1781822;79;21083;-38
2021/10/25 08:45:34;;;;;;;2.70;1.80;;;;;;;9.45;41.79;101152.39;1805589;78;20910;-38
2021/10/25 08:48:05;;;;;;;6.22;2.00;;;;;;;9.54;41.48;101149.74;1799777;79;20941;-38
2021/10/25 08:50:37;;;;;;;;;;;;;;;9.66;41.30;101147.83;1808666;78;20937;-38
2021/10/25 08:53:07;;;;;;;3.80;1.87;;;;;;;9.77;40.95;101145.13;1815282;79;20138;-38
2021/10/25 08:55:50;;;;;;;5.25;1.90;;;;;;;9.79;41.12;101149.10;1812746;78;21114;-38
2021/10/25 08:58:14;;;;;;;3.77;1.98;;;;;;;9.97;40.92;101145.95;1820964;78;21008;-38
2021/10/25 09:00:51;;;;;;;3.15;2.22;;;;;;;10.15;40.22;101138.13;1821755;78;21056;-38
2021/10/25 09:03:22;;;;;;;3.25;1.95;;;;;;;10.31;39.99;101148.03;1787589;79;21819;-38
2021/10/25 09:06:02;;;;;;;3.10;2.00;;;;;;;10.42;39.20;101146.61;1838489;77;21064;-38
2021/10/25 09:08:33;;;;;;;;;;;;;;;10.56;39.07;101143.77;1797787;78;21998;-38
2021/10/25 09:11:01;;;;;;;5.35;2.00;;;;;;;10.69;39.00;101141.51;1804314;79;20094;-38
2021/10/25 09:13:29;;;;;;;3.45;2.05;;;;;;;10.73;38.52;101145.18;1814202;78;21024;-38
2021/10/25 09:16:03;;;;;;;4.58;2.40;;;;;;;10.87;38.58;101141.21;1815348;78;21028;-38
2021/10/25 09:18:47;;;;;;;3.27;2.00;;;;;;;11.07;38.14;101138.98;1817054;78;21554;-38
2021/10/25 09:21:16;;;;;;;7.08;2.08;;;;;;;11.25;37.74;101134.59;1815200;77;21998;-38
2021/10/25 09:23:49;;;;;;;6.55;2.17;;;;;;;11.42;37.59;101137.86;1800831;77;21025;-38
2021/10/25 09:26:21;;;;;;;8.00;2.27;;;;;;;11.57;37.14;101135.20;1803295;77;21038;-38
2021/10/25 09:28:53;;;;;;;5.55;2.08;;;;;;;11.70;36.75;101141.80;1819346;77;20906;-38
2021/10/25 09:31:26;;;;;;;5.53;2.58;;;;;;;11.83;36.61;101141.95;1817282;77;21483;-38
2021/10/25 09:33:59;;;;;;;3.85;2.35;;;;;;;11.93;36.70;101137.52;1808155;77;21122;-38
2021/10/25 09:36:37;;;;;;;3.83;2.08;;;;;;;11.98;36.33;101142.78;1795047;79;20978;-37
2021/10/25 09:39:15;;;;;;;2.70;1.95;;;;;;;11.96;35.55;101132.78;1738326;80;21064;-36
2021/10/25 09:50:08;;;;;;;3.33;1.98;;;;;;;11.82;36.09;101124.03;1787685;79;20960;-37
2021/10/25 09:52:40;;;;;;;3.08;2.00;;;;;;;11.96;36.08;101122.71;1810759;77;21525;-38
2021/10/25 09:55:12;;;;;;;4.20;2.50;;;;;;;12.13;35.49;101122.66;1815321;79;20988;-38
2021/10/25 10:00:18;;;;;;;5.35;2.35;;;;;;;12.44;35.03;101122.31;1760097;78;21102;-37
2021/10/25 10:02:47;;;;;;;3.58;2.25;;;;;;;12.63;34.52;101115.88;1789766;78;21548;-37
2021/10/25 10:05:22;;;;;;;3.52;2.17;;;;;;;12.81;33.87;101118.50;1812984;78;20950;-38
2021/10/25 10:07:50;;;;;;;2.17;1.98;;;;;;;12.93;33.69;101112.55;1800021;78;21006;-38
2021/10/25 10:10:24;;;;;;;3.67;2.02;;;;;;;13.13;33.82;101114.26;1734553;81;21033;-38
2021/10/25 10:12:54;;;;;;;3.72;2.25;;;;;;;13.29;33.29;101111.96;1750866;81;21130;-38
2021/10/25 10:15:25;;;;;;;3.58;2.22;;;;;;;13.46;32.68;101103.61;1818745;78;21032;-38
2021/10/25 10:17:59;;;;;;;4.83;2.30;;;;;;;13.64;31.93;101108.33;1802116;78;21018;-38
2021/10/25 10:20:30;;;;;;;3.25;2.12;;;;;;;13.74;32.09;101096.99;1763452;79;20996;-38
2021/10/25 10:23:06;;;;;;;2.22;1.92;;;;;;;13.89;31.86;101091.45;1812046;78;21052;-38
2021/10/25 10:25:51;;;;;;;3.30;2.15;;;;;;;13.99;31.75;101085.52;1803828;78;21805;-38
2021/10/25 10:28:40;;;;;;;2.60;2.00;;;;;;;13.99;31.20;101085.52;1787035;79;21163;-38
2021/10/25 10:31:24;;;;;;;3.72;2.10;;;;;;;14.03;31.28;101082.94;1797063;79;20999;-38
2021/10/25 10:33:55;;;;;;;3.33;2.00;;;;;;;14.17;30.79;101084.19;1808682;78;21002;-38
2021/10/25 10:36:27;;;;;;;3.22;1.90;;;;;;;14.32;30.60;101088.16;1801562;79;21023;-38
2021/10/25 10:39:13;;;;;;;6.42;2.20;;;;;;;14.50;30.40;101086.00;1801839;79;21133;-38
2021/10/25 10:42:02;;;;;;;4.22;2.10;;;;;;;14.67;30.11;101089.25;1794773;79;21240;-38
2021/10/25 10:44:58;;;;;;;3.58;2.70;;;;;;;14.88;29.88;101087.73;1802283;79;21008;-38
2021/10/25 10:47:20;;;;;;;3.00;2.20;;;;;;;15.09;29.37;101092.45;1787859;79;21017;-38
2021/10/25 10:49:55;;;;;;;4.17;2.30;;;;;;;15.29;29.17;101081.66;1790342;79;21515;-38
2021/10/25 10:52:33;;;;;;;4.87;2.30;;;;;;;15.40;28.79;101080.78;1798575;79;21285;-38
2021/10/25 10:55:24;;;;;;;3.20;2.40;;;;;;;15.31;27.92;101076.63;1799695;79;20906;-38
2021/10/25 11:00:30;;;;;;;3.83;2.47;;;;;;;15.34;28.79;101077.30;1738754;81;20985;-38
2021/10/25 11:03:22;;;;;;;5.50;2.40;;;;;;;15.49;28.48;101083.38;1743542;80;21499;-38
2021/10/25 11:06:10;;;;;;;3.02;2.00;;;;;;;15.69;27.98;101079.62;1714614;82;21143;-39
2021/10/25 11:08:44;;;;;;;3.83;2.30;;;;;;;15.76;27.36;101079.02;1736607;82;20949;-38
2021/10/25 11:11:21;;;;;;;5.87;2.45;;;;;;;15.74;26.99;101079.92;1743829;82;21568;-38
2021/10/25 11:14:07;;;;;;;3.70;2.45;;;;;;;15.76;26.66;101072.18;1733487;82;21076;-39
2021/10/25 11:16:32;;;;;;;3.98;2.30;;;;;;;15.84;27.07;101078.03;1761150;81;21030;-38
2021/10/25 11:18:59;;;;;;;3.25;2.05;;;;;;;16.05;26.94;101071.16;1752841;81;21133;-39
2021/10/25 11:21:46;;;;;;;4.60;2.02;;;;;;;16.35;25.98;101078.89;1741937;81;20986;-38
2021/10/25 11:24:13;;;;;;;3.83;2.27;;;;;;;16.58;25.96;101075.72;1766969;81;21004;-39
2021/10/25 11:26:47;;;;;;;3.47;1.95;;;;;;;16.70;25.56;101078.31;1756124;81;21079;-38
2021/10/25 11:29:29;;;;;;;3.42;1.80;;;;;;;16.87;25.45;101062.84;1755607;81;21083;-38
2021/10/25 11:32:03;;;;;;;18.57;3.45;;;;;;;17.09;24.18;101075.61;1757375;81;21119;-39
2021/10/25 11:34:35;;;;;;;12.55;3.27;;;;;;;17.21;23.95;101064.48;1761186;81;21071;-39
2021/10/25 11:37:19;;;;;;;6.08;2.47;;;;;;;17.33;24.45;101064.34;1760252;80;20928;-38
2021/10/25 11:40:02;;;;;;;4.17;2.05;;;;;;;17.58;23.67;101059.27;1760174;81;21004;-39
2021/10/25 11:42:27;;;;;;;2.65;1.60;;;;;;;17.83;23.55;101057.78;1734251;81;21039;-39
2021/10/25 11:44:56;;;;;;;;;;;;;;;18.04;23.13;101053.23;1776690;80;21603;-39
2021/10/25 11:47:35;;;;;;;2.77;1.95;;;;;;;18.23;22.96;101051.17;1770791;79;20474;-39
2021/10/25 11:50:09;;;;;;;3.57;2.20;;;;;;;18.56;22.29;101047.73;1772824;80;20987;-39
2021/10/25 11:52:56;;;;;;;3.10;1.92;;;;;;;18.56;22.29;101047.73;1788928;80;21551;-39
2021/10/25 11:55:27;;;;;;;3.65;2.20;;;;;;;18.80;22.57;101043.72;1773869;80;21523;-39
2021/10/25 11:57:57;;;;;;;4.62;2.98;;;;;;;19.09;22.21;101040.72;1778985;80;22264;-39
2021/10/25 12:00:25;;;;;;;4.65;2.05;;;;;;;19.28;21.86;101034.23;1770328;80;21053;-39
2021/10/25 12:03:05;;;;;;;2.95;2.10;;;;;;;19.49;21.10;101035.28;1763670;80;21021;-39
2021/10/25 12:05:31;;;;;;;3.60;2.08;;;;;;;19.64;20.83;101028.53;1765649;79;20998;-39
2021/10/25 12:07:59;;;;;;;5.00;2.30;;;;;;;19.75;20.36;101026.67;1677373;83;21115;-39
2021/10/25 12:10:27;;;;;;;2.98;2.25;;;;;;;19.80;21.08;101023.56;1719383;83;21169;-39
2021/10/25 12:12:59;;;;;;;4.67;2.50;;;;;;;19.82;20.81;101022.58;1769571;80;21065;-39
2021/10/25 12:15:28;;;;;;;2.65;2.20;;;;;;;19.60;20.98;101016.70;1759903;79;21523;-39
2021/10/25 12:17:59;;;;;;;3.67;2.55;;;;;;;19.63;21.09;101013.19;1755838;79;21526;-39
2021/10/25 12:20:37;;;;;;;6.05;3.00;;;;;;;19.78;21.20;101016.27;1775435;79;21134;-39
2021/10/25 12:23:15;;;;;;;4.83;2.60;;;;;;;19.96;21.00;101015.22;1757739;79;21129;-39
2021/10/25 12:25:42;;;;;;;5.35;2.92;;;;;;;20.26;21.06;101015.02;1751192;79;20998;-39
2021/10/25 12:28:19;;;;;;;6.45;2.90;;;;;;;20.46;20.72;101016.93;1739265;82;21005;-40
2021/10/25 12:30:50;;;;;;;4.97;2.52;;;;;;;20.73;20.37;101015.47;1761191;81;20987;-39
2021/10/25 12:33:24;;;;;;;4.42;2.80;;;;;;;21.12;20.10;101010.08;1749431;81;21029;-39
2021/10/25 12:35:51;;;;;;;2.83;2.30;;;;;;;21.15;19.80;101003.83;1749143;79;21135;-39
2021/10/25 12:38:21;;;;;;;4.28;2.72;;;;;;;21.02;19.74;101002.56;1768649;79;20938;-39
2021/10/25 12:41:01;;;;;;;7.58;3.10;;;;;;;21.10;19.62;100997.28;1766503;79;21853;-39
2021/10/25 12:43:42;;;;;;;15.05;4.30;;;;;;;21.31;19.52;100992.40;1769184;80;21260;-40
2021/10/25 12:46:11;;;;;;;4.15;3.08;;;;;;;21.59;19.47;100983.37;1779302;78;21590;-40
2021/10/25 12:48:47;;;;;;;7.27;3.67;;;;;;;21.90;18.80;100988.65;1796838;79;21829;-40
2021/10/25 12:51:14;;;;;;;6.10;2.90;;;;;;;22.06;18.82;100985.70;1802672;79;20976;-40
2021/10/25 12:53:46;;;;;;;5.33;3.17;;;;;;;22.23;18.83;100988.80;1784387;79;21529;-40
2021/10/25 12:56:13;;;;;;;4.90;2.87;;;;;;;22.52;18.43;100988.91;1805248;78;21664;-40
2021/10/25 12:58:40;;;;;;;4.97;3.05;;;;;;;22.72;18.33;100991.42;1803690;78;21001;-40
2021/10/25 13:01:12;;;;;;;4.40;2.92;;;;;;;22.93;18.35;100989.14;1792846;79;21184;-40
2021/10/25 13:03:47;;;;;;;5.12;3.62;;;;;;;23.21;17.91;100992.32;1773048;79;21524;-39
2021/10/25 13:06:14;;;;;;;6.58;3.33;;;;;;;23.35;17.70;100985.30;1798710;78;21029;-40
2021/10/25 13:08:40;;;;;;;6.22;3.30;;;;;;;23.37;17.53;100987.87;1790460;79;21521;-40
2021/10/25 13:11:13;;;;;;;6.30;3.40;;;;;;;23.43;17.48;100982.66;1774090;78;20996;-40
2021/10/25 13:13:43;;;;;;;4.53;3.20;;;;;;;23.60;17.20;100983.16;1772493;81;21127;-40
2021/10/25 13:16:13;;;;;;;6.50;3.22;;;;;;;23.51;16.75;100980.67;1793508;78;21571;-40